sensor_id;sensor_type;location;lat;lon;timestamp;P1;durP1;ratioP1;P2;durP2;ratioP2
75289;SDS011;63883;48.996;20.804;2023-04-25T00:01:20;19.27;;;9.90;;
75289;SDS011;63883;48.996;20.804;2023-04-25T00:03:47;17.02;;;10.00;;
75289;SDS011;63883;48.996;20.804;2023-04-25T00:06:13;17.15;;;10.10;;
75289;SDS011;63883;48.996;20.804;2023-04-25T00:08:39;20.00;;;10.30;;
75289;SDS011;63883;48.996;20.804;2023-04-25T00:11:05;18.50;;;9.95;;
75289;SDS011;63883;48.996;20.804;2023-04-25T00:13:31;19.17;;;10.30;;
75289;SDS011;63883;48.996;20.804;2023-04-25T00:15:57;18.17;;;10.20;;
75289;SDS011;63883;48.996;20.804;2023-04-25T00:18:23;20.10;;;10.90;;
75289;SDS011;63883;48.996;20.804;2023-04-25T00:20:49;19.55;;;11.35;;
75289;SDS011;63883;48.996;20.804;2023-04-25T00:23:15;17.73;;;10.52;;
75289;SDS011;63883;48.996;20.804;2023-04-25T00:25:43;20.50;;;11.63;;
75289;SDS011;63883;48.996;20.804;2023-04-25T00:28:10;19.00;;;10.98;;
75289;SDS011;63883;48.996;20.804;2023-04-25T00:30:37;20.23;;;10.75;;
75289;SDS011;63883;48.996;20.804;2023-04-25T00:33:03;20.38;;;10.75;;
75289;SDS011;63883;48.996;20.804;2023-04-25T00:35:29;19.98;;;11.38;;
75289;SDS011;63883;48.996;20.804;2023-04-25T00:37:55;20.73;;;11.20;;
75289;SDS011;63883;48.996;20.804;2023-04-25T00:40:20;17.85;;;10.73;;
75289;SDS011;63883;48.996;20.804;2023-04-25T00:42:46;18.27;;;10.93;;
75289;SDS011;63883;48.996;20.804;2023-04-25T00:45:13;17.75;;;10.25;;
75289;SDS011;63883;48.996;20.804;2023-04-25T00:47:41;21.67;;;11.73;;
75289;SDS011;63883;48.996;20.804;2023-04-25T00:50:08;21.67;;;10.98;;
75289;SDS011;63883;48.996;20.804;2023-04-25T00:52:34;21.55;;;11.82;;
75289;SDS011;63883;48.996;20.804;2023-04-25T00:55:01;20.33;;;11.45;;
75289;SDS011;63883;48.996;20.804;2023-04-25T00:57:26;21.77;;;11.35;;
75289;SDS011;63883;48.996;20.804;2023-04-25T00:59:52;19.52;;;10.73;;
75289;SDS011;63883;48.996;20.804;2023-04-25T01:02:18;19.88;;;10.25;;
75289;SDS011;63883;48.996;20.804;2023-04-25T01:04:46;20.65;;;10.73;;
75289;SDS011;63883;48.996;20.804;2023-04-25T01:07:13;19.95;;;10.85;;
75289;SDS011;63883;48.996;20.804;2023-04-25T01:09:39;22.67;;;12.55;;
75289;SDS011;63883;48.996;20.804;2023-04-25T01:12:05;22.48;;;11.85;;
75289;SDS011;63883;48.996;20.804;2023-04-25T01:14:32;21.42;;;11.25;;
75289;SDS011;63883;48.996;20.804;2023-04-25T01:16:57;19.85;;;10.32;;
75289;SDS011;63883;48.996;20.804;2023-04-25T01:19:23;17.00;;;9.70;;
75289;SDS011;63883;48.996;20.804;2023-04-25T01:21:50;18.15;;;9.68;;
75289;SDS011;63883;48.996;20.804;2023-04-25T01:24:16;19.58;;;9.90;;
75289;SDS011;63883;48.996;20.804;2023-04-25T01:26:42;16.73;;;9.35;;
75289;SDS011;63883;48.996;20.804;2023-04-25T01:29:18;20.17;;;9.93;;
75289;SDS011;63883;48.996;20.804;2023-04-25T01:31:45;18.98;;;10.52;;
75289;SDS011;63883;48.996;20.804;2023-04-25T01:34:12;19.58;;;10.48;;
75289;SDS011;63883;48.996;20.804;2023-04-25T01:36:38;18.83;;;9.98;;
75289;SDS011;63883;48.996;20.804;2023-04-25T01:39:04;19.27;;;9.18;;
75289;SDS011;63883;48.996;20.804;2023-04-25T01:41:30;17.20;;;10.00;;
75289;SDS011;63883;48.996;20.804;2023-04-25T01:43:56;17.65;;;9.63;;
75289;SDS011;63883;48.996;20.804;2023-04-25T01:46:22;20.15;;;10.85;;
75289;SDS011;63883;48.996;20.804;2023-04-25T01:48:48;19.27;;;10.60;;
75289;SDS011;63883;48.996;20.804;2023-04-25T01:51:14;21.63;;;11.10;;
75289;SDS011;63883;48.996;20.804;2023-04-25T01:53:40;24.25;;;12.50;;
75289;SDS011;63883;48.996;20.804;2023-04-25T01:56:07;20.20;;;11.77;;
75289;SDS011;63883;48.996;20.804;2023-04-25T01:58:33;17.63;;;10.48;;
75289;SDS011;63883;48.996;20.804;2023-04-25T02:00:59;18.75;;;10.43;;
75289;SDS011;63883;48.996;20.804;2023-04-25T02:03:25;14.73;;;9.15;;
75289;SDS011;63883;48.996;20.804;2023-04-25T02:05:51;16.63;;;9.82;;
75289;SDS011;63883;48.996;20.804;2023-04-25T02:08:17;15.80;;;9.20;;
75289;SDS011;63883;48.996;20.804;2023-04-25T02:10:43;16.10;;;9.07;;
75289;SDS011;63883;48.996;20.804;2023-04-25T02:13:09;14.52;;;8.88;;
75289;SDS011;63883;48.996;20.804;2023-04-25T02:15:35;13.80;;;8.45;;
75289;SDS011;63883;48.996;20.804;2023-04-25T02:18:01;14.82;;;8.95;;
75289;SDS011;63883;48.996;20.804;2023-04-25T02:20:27;15.43;;;9.73;;
75289;SDS011;63883;48.996;20.804;2023-04-25T02:22:55;14.25;;;9.00;;
75289;SDS011;63883;48.996;20.804;2023-04-25T02:25:21;13.48;;;8.27;;
75289;SDS011;63883;48.996;20.804;2023-04-25T02:27:47;12.95;;;8.02;;
75289;SDS011;63883;48.996;20.804;2023-04-25T02:30:13;13.70;;;8.52;;
75289;SDS011;63883;48.996;20.804;2023-04-25T02:32:40;11.68;;;7.47;;
75289;SDS011;63883;48.996;20.804;2023-04-25T02:35:06;12.68;;;7.43;;
75289;SDS011;63883;48.996;20.804;2023-04-25T02:37:32;12.20;;;7.55;;
75289;SDS011;63883;48.996;20.804;2023-04-25T02:39:59;12.00;;;7.47;;
75289;SDS011;63883;48.996;20.804;2023-04-25T02:42:26;11.30;;;7.38;;
75289;SDS011;63883;48.996;20.804;2023-04-25T02:44:52;10.73;;;7.32;;
75289;SDS011;63883;48.996;20.804;2023-04-25T02:47:18;10.18;;;6.78;;
75289;SDS011;63883;48.996;20.804;2023-04-25T02:49:44;8.52;;;5.72;;
75289;SDS011;63883;48.996;20.804;2023-04-25T02:52:10;7.78;;;5.85;;
75289;SDS011;63883;48.996;20.804;2023-04-25T02:54:36;8.52;;;5.80;;
75289;SDS011;63883;48.996;20.804;2023-04-25T02:57:03;7.57;;;5.32;;
75289;SDS011;63883;48.996;20.804;2023-04-25T02:59:29;9.80;;;5.45;;
75289;SDS011;63883;48.996;20.804;2023-04-25T03:01:55;8.05;;;5.38;;
75289;SDS011;63883;48.996;20.804;2023-04-25T03:04:21;8.68;;;6.20;;
75289;SDS011;63883;48.996;20.804;2023-04-25T03:06:49;8.18;;;5.65;;
75289;SDS011;63883;48.996;20.804;2023-04-25T03:09:15;8.18;;;5.55;;
75289;SDS011;63883;48.996;20.804;2023-04-25T03:11:42;8.02;;;5.63;;
75289;SDS011;63883;48.996;20.804;2023-04-25T03:14:10;7.50;;;5.13;;
75289;SDS011;63883;48.996;20.804;2023-04-25T03:16:36;7.43;;;5.55;;
75289;SDS011;63883;48.996;20.804;2023-04-25T03:19:02;7.13;;;4.65;;
75289;SDS011;63883;48.996;20.804;2023-04-25T03:21:28;7.00;;;4.60;;
75289;SDS011;63883;48.996;20.804;2023-04-25T03:23:57;6.70;;;4.70;;
75289;SDS011;63883;48.996;20.804;2023-04-25T03:26:23;6.30;;;4.80;;
75289;SDS011;63883;48.996;20.804;2023-04-25T03:28:48;7.18;;;5.03;;
75289;SDS011;63883;48.996;20.804;2023-04-25T03:31:14;6.80;;;4.80;;
75289;SDS011;63883;48.996;20.804;2023-04-25T03:33:40;6.72;;;4.90;;
75289;SDS011;63883;48.996;20.804;2023-04-25T03:36:06;6.97;;;4.70;;
75289;SDS011;63883;48.996;20.804;2023-04-25T03:38:32;7.47;;;4.75;;
75289;SDS011;63883;48.996;20.804;2023-04-25T03:40:58;7.55;;;5.13;;
75289;SDS011;63883;48.996;20.804;2023-04-25T03:43:23;6.93;;;4.65;;
75289;SDS011;63883;48.996;20.804;2023-04-25T03:45:49;7.75;;;5.30;;
75289;SDS011;63883;48.996;20.804;2023-04-25T03:48:15;7.75;;;4.70;;
75289;SDS011;63883;48.996;20.804;2023-04-25T03:50:41;6.47;;;4.80;;
75289;SDS011;63883;48.996;20.804;2023-04-25T03:53:07;7.55;;;4.78;;
75289;SDS011;63883;48.996;20.804;2023-04-25T03:55:32;7.35;;;5.28;;
75289;SDS011;63883;48.996;20.804;2023-04-25T03:57:58;8.55;;;5.55;;
75289;SDS011;63883;48.996;20.804;2023-04-25T04:00:24;8.88;;;5.25;;
75289;SDS011;63883;48.996;20.804;2023-04-25T04:02:50;8.20;;;5.53;;
75289;SDS011;63883;48.996;20.804;2023-04-25T04:05:16;8.70;;;5.50;;
75289;SDS011;63883;48.996;20.804;2023-04-25T04:07:42;9.23;;;6.20;;
75289;SDS011;63883;48.996;20.804;2023-04-25T04:10:08;9.15;;;6.30;;
75289;SDS011;63883;48.996;20.804;2023-04-25T04:12:35;8.93;;;5.60;;
75289;SDS011;63883;48.996;20.804;2023-04-25T04:15:02;9.10;;;5.78;;
75289;SDS011;63883;48.996;20.804;2023-04-25T04:17:29;8.40;;;5.68;;
75289;SDS011;63883;48.996;20.804;2023-04-25T04:19:55;8.63;;;5.40;;
75289;SDS011;63883;48.996;20.804;2023-04-25T04:22:21;8.98;;;5.50;;
75289;SDS011;63883;48.996;20.804;2023-04-25T04:24:48;8.32;;;5.53;;
75289;SDS011;63883;48.996;20.804;2023-04-25T04:27:15;9.05;;;5.93;;
75289;SDS011;63883;48.996;20.804;2023-04-25T04:29:45;9.32;;;6.07;;
75289;SDS011;63883;48.996;20.804;2023-04-25T04:32:11;8.13;;;5.78;;
75289;SDS011;63883;48.996;20.804;2023-04-25T04:34:38;8.18;;;5.32;;
75289;SDS011;63883;48.996;20.804;2023-04-25T04:37:05;8.10;;;5.28;;
75289;SDS011;63883;48.996;20.804;2023-04-25T04:39:32;9.07;;;5.72;;
75289;SDS011;63883;48.996;20.804;2023-04-25T04:41:59;6.88;;;4.63;;
75289;SDS011;63883;48.996;20.804;2023-04-25T04:44:27;6.80;;;4.88;;
75289;SDS011;63883;48.996;20.804;2023-04-25T04:46:53;8.15;;;5.00;;
75289;SDS011;63883;48.996;20.804;2023-04-25T04:49:20;6.82;;;4.65;;
75289;SDS011;63883;48.996;20.804;2023-04-25T04:51:46;7.03;;;4.35;;
75289;SDS011;63883;48.996;20.804;2023-04-25T04:54:12;5.97;;;4.35;;
75289;SDS011;63883;48.996;20.804;2023-04-25T04:56:38;9.45;;;4.90;;
75289;SDS011;63883;48.996;20.804;2023-04-25T04:59:04;5.60;;;4.32;;
75289;SDS011;63883;48.996;20.804;2023-04-25T05:01:30;5.93;;;4.00;;
75289;SDS011;63883;48.996;20.804;2023-04-25T05:03:56;5.07;;;3.80;;
75289;SDS011;63883;48.996;20.804;2023-04-25T05:06:25;5.57;;;3.80;;
75289;SDS011;63883;48.996;20.804;2023-04-25T05:08:54;5.38;;;3.60;;
75289;SDS011;63883;48.996;20.804;2023-04-25T05:11:21;4.95;;;3.80;;
75289;SDS011;63883;48.996;20.804;2023-04-25T05:13:48;4.72;;;3.47;;
75289;SDS011;63883;48.996;20.804;2023-04-25T05:16:13;4.25;;;3.20;;
75289;SDS011;63883;48.996;20.804;2023-04-25T05:18:39;5.15;;;3.60;;
75289;SDS011;63883;48.996;20.804;2023-04-25T05:21:05;4.75;;;3.50;;
75289;SDS011;63883;48.996;20.804;2023-04-25T05:23:32;5.35;;;3.30;;
75289;SDS011;63883;48.996;20.804;2023-04-25T05:25:58;3.78;;;2.80;;
75289;SDS011;63883;48.996;20.804;2023-04-25T05:28:24;4.35;;;2.75;;
75289;SDS011;63883;48.996;20.804;2023-04-25T05:30:49;3.25;;;2.85;;
75289;SDS011;63883;48.996;20.804;2023-04-25T05:33:16;3.33;;;2.35;;
75289;SDS011;63883;48.996;20.804;2023-04-25T05:35:42;2.25;;;1.90;;
75289;SDS011;63883;48.996;20.804;2023-04-25T05:38:08;1.80;;;1.70;;
75289;SDS011;63883;48.996;20.804;2023-04-25T05:40:33;1.92;;;1.70;;
75289;SDS011;63883;48.996;20.804;2023-04-25T05:43:00;1.05;;;1.00;;
75289;SDS011;63883;48.996;20.804;2023-04-25T05:45:26;1.27;;;1.17;;
75289;SDS011;63883;48.996;20.804;2023-04-25T05:47:51;1.00;;;1.00;;
75289;SDS011;63883;48.996;20.804;2023-04-25T05:50:17;1.02;;;1.02;;
75289;SDS011;63883;48.996;20.804;2023-04-25T05:52:43;1.10;;;1.10;;
75289;SDS011;63883;48.996;20.804;2023-04-25T05:55:09;1.50;;;1.40;;
75289;SDS011;63883;48.996;20.804;2023-04-25T05:57:34;2.60;;;1.50;;
75289;SDS011;63883;48.996;20.804;2023-04-25T06:00:00;1.48;;;1.30;;
75289;SDS011;63883;48.996;20.804;2023-04-25T06:02:26;1.42;;;1.30;;
75289;SDS011;63883;48.996;20.804;2023-04-25T06:04:52;2.38;;;1.40;;
75289;SDS011;63883;48.996;20.804;2023-04-25T06:07:18;1.15;;;1.13;;
75289;SDS011;63883;48.996;20.804;2023-04-25T06:09:45;2.03;;;1.55;;
75289;SDS011;63883;48.996;20.804;2023-04-25T06:12:11;1.30;;;1.20;;
75289;SDS011;63883;48.996;20.804;2023-04-25T06:14:36;1.45;;;1.23;;
75289;SDS011;63883;48.996;20.804;2023-04-25T06:17:02;1.10;;;1.10;;
75289;SDS011;63883;48.996;20.804;2023-04-25T06:19:33;1.10;;;1.10;;
75289;SDS011;63883;48.996;20.804;2023-04-25T06:22:01;1.10;;;1.10;;
75289;SDS011;63883;48.996;20.804;2023-04-25T06:24:27;1.05;;;1.05;;
75289;SDS011;63883;48.996;20.804;2023-04-25T06:26:53;1.13;;;1.13;;
75289;SDS011;63883;48.996;20.804;2023-04-25T06:29:19;1.40;;;1.20;;
75289;SDS011;63883;48.996;20.804;2023-04-25T06:31:46;1.10;;;1.10;;
75289;SDS011;63883;48.996;20.804;2023-04-25T06:34:12;1.20;;;1.20;;
75289;SDS011;63883;48.996;20.804;2023-04-25T06:36:38;1.10;;;1.10;;
75289;SDS011;63883;48.996;20.804;2023-04-25T06:39:03;1.10;;;1.10;;
75289;SDS011;63883;48.996;20.804;2023-04-25T06:41:29;1.20;;;1.00;;
75289;SDS011;63883;48.996;20.804;2023-04-25T06:43:55;1.20;;;1.10;;
75289;SDS011;63883;48.996;20.804;2023-04-25T06:46:20;1.58;;;1.00;;
75289;SDS011;63883;48.996;20.804;2023-04-25T06:48:46;1.30;;;1.02;;
75289;SDS011;63883;48.996;20.804;2023-04-25T06:51:12;1.10;;;1.00;;
75289;SDS011;63883;48.996;20.804;2023-04-25T06:53:38;1.00;;;1.00;;
75289;SDS011;63883;48.996;20.804;2023-04-25T06:56:05;0.88;;;0.88;;
75289;SDS011;63883;48.996;20.804;2023-04-25T06:58:31;0.70;;;0.70;;
75289;SDS011;63883;48.996;20.804;2023-04-25T07:00:57;0.70;;;0.70;;
75289;SDS011;63883;48.996;20.804;2023-04-25T07:03:23;0.90;;;0.90;;
75289;SDS011;63883;48.996;20.804;2023-04-25T07:05:49;0.70;;;0.70;;
75289;SDS011;63883;48.996;20.804;2023-04-25T07:08:15;0.70;;;0.70;;
75289;SDS011;63883;48.996;20.804;2023-04-25T07:10:42;0.60;;;0.60;;
75289;SDS011;63883;48.996;20.804;2023-04-25T07:13:08;0.70;;;0.70;;
75289;SDS011;63883;48.996;20.804;2023-04-25T07:15:33;0.75;;;0.75;;
75289;SDS011;63883;48.996;20.804;2023-04-25T07:17:59;0.70;;;0.70;;
75289;SDS011;63883;48.996;20.804;2023-04-25T07:20:25;0.70;;;0.70;;
75289;SDS011;63883;48.996;20.804;2023-04-25T07:22:52;0.80;;;0.80;;
75289;SDS011;63883;48.996;20.804;2023-04-25T07:25:18;1.02;;;0.90;;
75289;SDS011;63883;48.996;20.804;2023-04-25T07:27:45;0.70;;;0.70;;
75289;SDS011;63883;48.996;20.804;2023-04-25T07:30:11;0.88;;;0.70;;
75289;SDS011;63883;48.996;20.804;2023-04-25T07:32:37;0.80;;;0.80;;
75289;SDS011;63883;48.996;20.804;2023-04-25T07:35:04;0.90;;;0.90;;
75289;SDS011;63883;48.996;20.804;2023-04-25T07:37:32;0.80;;;0.80;;
75289;SDS011;63883;48.996;20.804;2023-04-25T07:39:58;1.17;;;1.17;;
75289;SDS011;63883;48.996;20.804;2023-04-25T07:42:24;0.95;;;0.95;;
75289;SDS011;63883;48.996;20.804;2023-04-25T07:44:50;0.98;;;0.90;;
75289;SDS011;63883;48.996;20.804;2023-04-25T07:47:16;0.80;;;0.80;;
75289;SDS011;63883;48.996;20.804;2023-04-25T07:49:44;0.85;;;0.85;;
75289;SDS011;63883;48.996;20.804;2023-04-25T07:52:10;0.95;;;0.93;;
75289;SDS011;63883;48.996;20.804;2023-04-25T07:54:37;0.90;;;0.90;;
75289;SDS011;63883;48.996;20.804;2023-04-25T07:57:02;0.82;;;0.82;;
75289;SDS011;63883;48.996;20.804;2023-04-25T07:59:28;0.90;;;0.90;;
75289;SDS011;63883;48.996;20.804;2023-04-25T08:01:54;0.95;;;0.95;;
75289;SDS011;63883;48.996;20.804;2023-04-25T08:04:20;0.85;;;0.85;;
75289;SDS011;63883;48.996;20.804;2023-04-25T08:06:46;0.90;;;0.90;;
75289;SDS011;63883;48.996;20.804;2023-04-25T08:09:11;0.90;;;0.90;;
75289;SDS011;63883;48.996;20.804;2023-04-25T08:11:37;0.80;;;0.80;;
75289;SDS011;63883;48.996;20.804;2023-04-25T08:14:03;1.73;;;0.90;;
75289;SDS011;63883;48.996;20.804;2023-04-25T08:16:29;0.90;;;0.90;;
75289;SDS011;63883;48.996;20.804;2023-04-25T08:18:55;1.00;;;1.00;;
75289;SDS011;63883;48.996;20.804;2023-04-25T08:21:21;1.17;;;1.10;;
75289;SDS011;63883;48.996;20.804;2023-04-25T08:23:47;3.75;;;1.30;;
75289;SDS011;63883;48.996;20.804;2023-04-25T08:26:12;1.50;;;1.40;;
75289;SDS011;63883;48.996;20.804;2023-04-25T08:28:38;1.30;;;1.20;;
75289;SDS011;63883;48.996;20.804;2023-04-25T08:31:04;1.50;;;1.40;;
75289;SDS011;63883;48.996;20.804;2023-04-25T08:33:30;1.30;;;1.20;;
75289;SDS011;63883;48.996;20.804;2023-04-25T08:35:56;1.20;;;1.20;;
75289;SDS011;63883;48.996;20.804;2023-04-25T08:38:23;1.10;;;1.10;;
75289;SDS011;63883;48.996;20.804;2023-04-25T08:40:49;1.40;;;1.30;;
75289;SDS011;63883;48.996;20.804;2023-04-25T08:45:43;1.38;;;1.27;;
75289;SDS011;63883;48.996;20.804;2023-04-25T08:48:12;1.50;;;1.40;;
75289;SDS011;63883;48.996;20.804;2023-04-25T08:50:39;1.38;;;1.30;;
75289;SDS011;63883;48.996;20.804;2023-04-25T08:53:08;1.73;;;1.48;;
75289;SDS011;63883;48.996;20.804;2023-04-25T08:55:38;1.35;;;1.30;;
75289;SDS011;63883;48.996;20.804;2023-04-25T08:58:07;2.40;;;1.40;;
75289;SDS011;63883;48.996;20.804;2023-04-25T09:03:01;1.40;;;1.30;;
75289;SDS011;63883;48.996;20.804;2023-04-25T09:05:26;1.90;;;1.63;;
75289;SDS011;63883;48.996;20.804;2023-04-25T09:07:54;1.90;;;1.73;;
75289;SDS011;63883;48.996;20.804;2023-04-25T09:10:21;2.70;;;2.03;;
75289;SDS011;63883;48.996;20.804;2023-04-25T09:15:31;1.38;;;1.33;;
75289;SDS011;63883;48.996;20.804;2023-04-25T09:17:59;1.27;;;1.17;;
75289;SDS011;63883;48.996;20.804;2023-04-25T09:20:25;1.40;;;1.30;;
75289;SDS011;63883;48.996;20.804;2023-04-25T09:23:01;1.10;;;1.10;;
75289;SDS011;63883;48.996;20.804;2023-04-25T09:25:28;1.13;;;1.13;;
75289;SDS011;63883;48.996;20.804;2023-04-25T09:28:03;1.02;;;1.02;;
75289;SDS011;63883;48.996;20.804;2023-04-25T09:30:33;1.30;;;1.20;;
75289;SDS011;63883;48.996;20.804;2023-04-25T09:33:04;1.52;;;1.40;;
75289;SDS011;63883;48.996;20.804;2023-04-25T09:35:35;1.42;;;1.30;;
75289;SDS011;63883;48.996;20.804;2023-04-25T09:38:08;1.10;;;1.10;;
75289;SDS011;63883;48.996;20.804;2023-04-25T09:40:34;1.30;;;1.30;;
75289;SDS011;63883;48.996;20.804;2023-04-25T09:43:18;1.10;;;1.10;;
75289;SDS011;63883;48.996;20.804;2023-04-25T09:45:43;1.00;;;1.00;;
75289;SDS011;63883;48.996;20.804;2023-04-25T09:48:11;1.10;;;1.00;;
75289;SDS011;63883;48.996;20.804;2023-04-25T09:50:41;1.10;;;1.10;;
75289;SDS011;63883;48.996;20.804;2023-04-25T09:53:07;1.20;;;1.20;;
75289;SDS011;63883;48.996;20.804;2023-04-25T09:55:33;1.02;;;1.02;;
75289;SDS011;63883;48.996;20.804;2023-04-25T09:58:05;1.08;;;1.00;;
75289;SDS011;63883;48.996;20.804;2023-04-25T10:00:32;0.93;;;0.93;;
75289;SDS011;63883;48.996;20.804;2023-04-25T10:03:00;1.08;;;1.08;;
75289;SDS011;63883;48.996;20.804;2023-04-25T10:05:29;1.10;;;1.10;;
75289;SDS011;63883;48.996;20.804;2023-04-25T10:07:58;1.10;;;1.00;;
75289;SDS011;63883;48.996;20.804;2023-04-25T10:10:26;1.00;;;1.00;;
75289;SDS011;63883;48.996;20.804;2023-04-25T10:12:53;1.10;;;1.02;;
75289;SDS011;63883;48.996;20.804;2023-04-25T10:15:20;0.90;;;0.90;;
75289;SDS011;63883;48.996;20.804;2023-04-25T10:17:49;1.05;;;1.00;;
75289;SDS011;63883;48.996;20.804;2023-04-25T10:20:15;0.90;;;0.90;;
75289;SDS011;63883;48.996;20.804;2023-04-25T10:22:42;1.33;;;0.90;;
75289;SDS011;63883;48.996;20.804;2023-04-25T10:25:11;1.15;;;1.10;;
75289;SDS011;63883;48.996;20.804;2023-04-25T10:27:39;1.00;;;1.00;;
75289;SDS011;63883;48.996;20.804;2023-04-25T10:30:09;0.90;;;0.90;;
75289;SDS011;63883;48.996;20.804;2023-04-25T10:32:43;1.15;;;1.13;;
75289;SDS011;63883;48.996;20.804;2023-04-25T10:35:14;1.33;;;1.10;;
75289;SDS011;63883;48.996;20.804;2023-04-25T10:40:28;1.10;;;1.10;;
75289;SDS011;63883;48.996;20.804;2023-04-25T10:42:54;0.93;;;0.93;;
75289;SDS011;63883;48.996;20.804;2023-04-25T10:45:21;0.90;;;0.90;;
75289;SDS011;63883;48.996;20.804;2023-04-25T10:47:47;0.90;;;0.90;;
75289;SDS011;63883;48.996;20.804;2023-04-25T10:50:16;1.10;;;1.00;;
75289;SDS011;63883;48.996;20.804;2023-04-25T10:52:42;1.23;;;1.17;;
75289;SDS011;63883;48.996;20.804;2023-04-25T10:55:08;4.00;;;2.47;;
75289;SDS011;63883;48.996;20.804;2023-04-25T10:57:38;3.05;;;2.50;;
75289;SDS011;63883;48.996;20.804;2023-04-25T11:00:16;1.90;;;1.50;;
75289;SDS011;63883;48.996;20.804;2023-04-25T11:02:47;1.10;;;1.10;;
75289;SDS011;63883;48.996;20.804;2023-04-25T11:07:51;2.20;;;1.95;;
75289;SDS011;63883;48.996;20.804;2023-04-25T11:10:24;1.80;;;1.50;;
75289;SDS011;63883;48.996;20.804;2023-04-25T11:12:51;1.13;;;1.05;;
75289;SDS011;63883;48.996;20.804;2023-04-25T11:15:17;1.00;;;1.00;;
75289;SDS011;63883;48.996;20.804;2023-04-25T11:17:43;1.00;;;1.00;;
75289;SDS011;63883;48.996;20.804;2023-04-25T11:20:11;1.00;;;1.00;;
75289;SDS011;63883;48.996;20.804;2023-04-25T11:22:39;1.00;;;1.00;;
75289;SDS011;63883;48.996;20.804;2023-04-25T11:25:09;1.00;;;1.00;;
75289;SDS011;63883;48.996;20.804;2023-04-25T11:27:49;1.13;;;1.13;;
75289;SDS011;63883;48.996;20.804;2023-04-25T11:30:18;1.10;;;1.10;;
75289;SDS011;63883;48.996;20.804;2023-04-25T11:32:45;1.10;;;1.10;;
75289;SDS011;63883;48.996;20.804;2023-04-25T11:35:10;1.10;;;1.00;;
75289;SDS011;63883;48.996;20.804;2023-04-25T11:37:40;1.30;;;1.20;;
75289;SDS011;63883;48.996;20.804;2023-04-25T11:40:06;1.10;;;1.10;;
75289;SDS011;63883;48.996;20.804;2023-04-25T11:42:38;1.33;;;1.23;;
75289;SDS011;63883;48.996;20.804;2023-04-25T11:45:10;1.23;;;1.13;;
75289;SDS011;63883;48.996;20.804;2023-04-25T11:47:36;1.10;;;1.10;;
75289;SDS011;63883;48.996;20.804;2023-04-25T11:50:03;1.40;;;1.30;;
75289;SDS011;63883;48.996;20.804;2023-04-25T11:55:08;1.60;;;1.50;;
75289;SDS011;63883;48.996;20.804;2023-04-25T11:57:35;1.77;;;1.67;;
75289;SDS011;63883;48.996;20.804;2023-04-25T12:02:37;2.13;;;1.92;;
75289;SDS011;63883;48.996;20.804;2023-04-25T12:05:08;2.10;;;1.90;;
75289;SDS011;63883;48.996;20.804;2023-04-25T12:07:38;2.92;;;2.00;;
75289;SDS011;63883;48.996;20.804;2023-04-25T12:10:07;2.83;;;1.92;;
75289;SDS011;63883;48.996;20.804;2023-04-25T12:12:35;1.95;;;1.85;;
75289;SDS011;63883;48.996;20.804;2023-04-25T12:15:14;2.20;;;2.00;;
75289;SDS011;63883;48.996;20.804;2023-04-25T12:17:45;1.98;;;1.77;;
75289;SDS011;63883;48.996;20.804;2023-04-25T12:20:13;2.83;;;1.95;;
75289;SDS011;63883;48.996;20.804;2023-04-25T12:22:41;1.90;;;1.80;;
75289;SDS011;63883;48.996;20.804;2023-04-25T12:25:12;1.80;;;1.70;;
75289;SDS011;63883;48.996;20.804;2023-04-25T12:28:08;3.10;;;1.85;;
75289;SDS011;63883;48.996;20.804;2023-04-25T12:33:24;1.80;;;1.70;;
75289;SDS011;63883;48.996;20.804;2023-04-25T12:35:51;1.90;;;1.80;;
75289;SDS011;63883;48.996;20.804;2023-04-25T12:38:22;1.60;;;1.50;;
75289;SDS011;63883;48.996;20.804;2023-04-25T12:40:48;1.70;;;1.60;;
75289;SDS011;63883;48.996;20.804;2023-04-25T12:43:14;1.73;;;1.63;;
75289;SDS011;63883;48.996;20.804;2023-04-25T12:45:40;1.60;;;1.50;;
75289;SDS011;63883;48.996;20.804;2023-04-25T12:48:06;1.70;;;1.60;;
75289;SDS011;63883;48.996;20.804;2023-04-25T12:50:31;4.53;;;2.10;;
75289;SDS011;63883;48.996;20.804;2023-04-25T12:52:57;4.28;;;3.10;;
75289;SDS011;63883;48.996;20.804;2023-04-25T12:55:23;2.17;;;1.98;;
75289;SDS011;63883;48.996;20.804;2023-04-25T12:57:49;1.50;;;1.40;;
75289;SDS011;63883;48.996;20.804;2023-04-25T13:00:14;1.75;;;1.65;;
75289;SDS011;63883;48.996;20.804;2023-04-25T13:02:43;1.48;;;1.38;;
75289;SDS011;63883;48.996;20.804;2023-04-25T13:05:09;1.50;;;1.40;;
75289;SDS011;63883;48.996;20.804;2023-04-25T13:07:34;1.50;;;1.40;;
75289;SDS011;63883;48.996;20.804;2023-04-25T13:10:00;1.42;;;1.33;;
75289;SDS011;63883;48.996;20.804;2023-04-25T13:12:28;1.52;;;1.42;;
75289;SDS011;63883;48.996;20.804;2023-04-25T13:14:53;1.70;;;1.60;;
75289;SDS011;63883;48.996;20.804;2023-04-25T13:17:19;1.40;;;1.30;;
75289;SDS011;63883;48.996;20.804;2023-04-25T13:19:45;1.80;;;1.70;;
75289;SDS011;63883;48.996;20.804;2023-04-25T13:22:11;1.70;;;1.60;;
75289;SDS011;63883;48.996;20.804;2023-04-25T13:24:36;1.83;;;1.70;;
75289;SDS011;63883;48.996;20.804;2023-04-25T13:27:02;1.90;;;1.80;;
75289;SDS011;63883;48.996;20.804;2023-04-25T13:29:28;1.90;;;1.80;;
75289;SDS011;63883;48.996;20.804;2023-04-25T13:31:54;1.77;;;1.67;;
75289;SDS011;63883;48.996;20.804;2023-04-25T13:34:20;2.13;;;1.98;;
75289;SDS011;63883;48.996;20.804;2023-04-25T13:36:46;2.10;;;1.90;;
75289;SDS011;63883;48.996;20.804;2023-04-25T13:39:11;2.00;;;1.90;;
75289;SDS011;63883;48.996;20.804;2023-04-25T13:41:37;1.95;;;1.85;;
75289;SDS011;63883;48.996;20.804;2023-04-25T13:44:03;1.98;;;1.70;;
75289;SDS011;63883;48.996;20.804;2023-04-25T13:46:29;1.95;;;1.75;;
75289;SDS011;63883;48.996;20.804;2023-04-25T13:48:55;1.75;;;1.65;;
75289;SDS011;63883;48.996;20.804;2023-04-25T13:51:20;1.85;;;1.60;;
75289;SDS011;63883;48.996;20.804;2023-04-25T13:53:46;1.85;;;1.75;;
75289;SDS011;63883;48.996;20.804;2023-04-25T13:56:12;1.50;;;1.40;;
75289;SDS011;63883;48.996;20.804;2023-04-25T13:58:38;2.17;;;1.60;;
75289;SDS011;63883;48.996;20.804;2023-04-25T14:01:04;1.77;;;1.67;;
75289;SDS011;63883;48.996;20.804;2023-04-25T14:03:30;1.90;;;1.80;;
75289;SDS011;63883;48.996;20.804;2023-04-25T14:05:56;1.90;;;1.70;;
75289;SDS011;63883;48.996;20.804;2023-04-25T14:08:22;1.55;;;1.45;;
75289;SDS011;63883;48.996;20.804;2023-04-25T14:10:47;1.80;;;1.70;;
75289;SDS011;63883;48.996;20.804;2023-04-25T14:13:13;1.67;;;1.58;;
75289;SDS011;63883;48.996;20.804;2023-04-25T14:15:39;1.70;;;1.60;;
75289;SDS011;63883;48.996;20.804;2023-04-25T14:18:04;1.70;;;1.60;;
75289;SDS011;63883;48.996;20.804;2023-04-25T14:20:31;1.73;;;1.63;;
75289;SDS011;63883;48.996;20.804;2023-04-25T14:22:56;1.60;;;1.50;;
75289;SDS011;63883;48.996;20.804;2023-04-25T14:25:24;1.63;;;1.52;;
75289;SDS011;63883;48.996;20.804;2023-04-25T14:27:50;1.60;;;1.50;;
75289;SDS011;63883;48.996;20.804;2023-04-25T14:30:17;2.08;;;1.80;;
75289;SDS011;63883;48.996;20.804;2023-04-25T14:32:43;2.55;;;2.28;;
75289;SDS011;63883;48.996;20.804;2023-04-25T14:35:10;1.77;;;1.67;;
75289;SDS011;63883;48.996;20.804;2023-04-25T14:37:36;3.05;;;2.75;;
75289;SDS011;63883;48.996;20.804;2023-04-25T14:40:02;1.90;;;1.80;;
75289;SDS011;63883;48.996;20.804;2023-04-25T14:42:28;2.03;;;1.80;;
75289;SDS011;63883;48.996;20.804;2023-04-25T14:44:54;2.42;;;2.22;;
75289;SDS011;63883;48.996;20.804;2023-04-25T14:47:20;2.20;;;2.00;;
75289;SDS011;63883;48.996;20.804;2023-04-25T14:49:45;1.95;;;1.85;;